Welcome!

Visit our other weather sites:

Template documentation
and downloads

And another site



There are no active watches, warnings or advisories

Nearby METAR Reports

   
KAVP - Albrightsville, PA
Updated: Jan 19 2020 6:54 pm
Clear  
Clear  
   Wind: West 15 mph<br />Gust to 15 mph
Wind: West 15 mph
Gust to 15 mph
Temperature: 26.6°F
Wind Chill: 15.8°F
Dew Point: 12.2°F
Humidity: 54%
Barometer: 29.95 inHg
Clouds: Clear
Visibility: 10 mi
Cloud details: Clear
KAVP 200054Z 28013G19KT 10SM CLR M03/M11 A2995 RMK AO2 SLP149 T10331111
KIWA - Apache Junction, AZ
Updated: Jan 19 2020 6:50 pm
Partly Cloudy  
Partly Cloudy  
   Wind: ENE 5.8 mph
Wind: ENE 5.8 mph
Temperature: 68°F
Dew Point: 33.8°F
Humidity: 28%
Barometer: 30.08 inHg
Clouds: Partly Cloudy
Visibility: 10 mi
Cloud details: Partly Cloudy 6096 m
KIWA 200050Z 07005KT 10SM SCT200 20/01 A3008
KPKB - Blue Rock, OH
Updated: Jan 19 2020 6:53 pm
Overcast  
Overcast  
   Wind: WNW 13.8 mph<br />Gust to 13.8 mph
Wind: WNW 13.8 mph
Gust to 13.8 mph
Temperature: 17.6°F
Wind Chill: 3.2°F
Dew Point: 8.6°F
Humidity: 68%
Barometer: 30.32 inHg
Clouds: Overcast
Visibility: 10 mi
Cloud details: Overcast 884 m
KPKB 200053Z 29012G18KT 10SM OVC029 M08/M13 A3032 RMK AO2 SLP280 T10781133 $
KHVN - Branford, CT
Updated: Jan 19 2020 6:53 pm
Few Clouds  
Few Clouds  
   Wind: NW 9.2 mph<br />Gust to 9.2 mph
Wind: NW 9.2 mph
Gust to 9.2 mph
Temperature: 35.6°F
Wind Chill: 28.4°F
Dew Point: 19.4°F
Humidity: 52%
Barometer: 29.86 inHg
Clouds: Few Clouds
Visibility: 10 mi
Cloud details: Few Clouds 2896 m
KHVN 200053Z 31008G15KT 10SM FEW095 02/M07 A2986 RMK AO2 SLP112 T00221067
KPHX - Carefree, AZ
Updated: Jan 19 2020 6:51 pm
Partly Cloudy  
Partly Cloudy  
   Wind: Calm
Wind: Calm
Temperature: 69.8°F
Dew Point: 30.2°F
Humidity: 23%
Barometer: 30.05 inHg
Clouds: Partly Cloudy
Visibility: 10 mi
Cloud details: Partly Cloudy 6401 m,
Partly Cloudy 7620 m
KPHX 200051Z 00000KT 10SM SCT210 SCT250 21/M01 A3005 RMK AO2 SLP168 T02111006
 

Script developed by  Saratoga-weather.org Adapted for the template by  Weerstation Leuven